Capon Springs, WV

5:15 AM EDT on March 27, 2015 (GMT -0400)
The Back Road | | Change Station
CLOSE
Current Station
Personal Weather Station
Location: Maurertown, VA
Elevation: 1043 ft
Nearby Weather Stations

Elev 1043 ft 38.94 °N, 78.52 °W | Updated 19 seconds ago

Rain
Rain
42.1 °F
Feels Like 40 °F
N
4.0
Wind Variable Wind from North
Gusts 4.0 mph

Today
High -- | Low -- °F
--% Chance of Precip.
Yesterday
High -- | Low -- °F
Precip. -- in
7:06 AM 7:32 PM
Waxing Crescent, 51% visible
Pressure 29.80 in
Visibility 10.0 miles
Clouds Scattered Clouds 2700 ft
Mostly Cloudy 3400 ft
Overcast 9000 ft
Windchill 40 °F
Dew Point 39 °F
Humidity 90%
Rainfall 0.09 in
Snow Depth Not available.
UV 0 out of 12
Pollen 9.20 out of 12
Air Quality Not available.
Flu Activity Not available.
METAR KOKV 270855Z AUTO 32009KT 10SM -RA SCT027 BKN034 OVC090 06/02 A2980 RMK AO2 P0001

More Conditions Fewer Conditions

Pressure 29.80 in
Visibility 10.0 miles
Clouds Scattered Clouds 2700 ft
Mostly Cloudy 3400 ft
Overcast 9000 ft
Windchill 40 °F
Dew Point 39 °F
Humidity 90%
Rainfall 0.09 in
Snow Depth Not available.
UV 0 out of 12
Pollen 9.20 out of 12
Air Quality Not available.
Flu Activity Not available.
METAR KOKV 270855Z AUTO 32009KT 10SM -RA SCT027 BKN034 OVC090 06/02 A2980 RMK AO2 P0001

More Conditions Fewer Conditions

10-Day Weather Forecast

Almanac

Astronomy

Mar. 27, 2015 Rise Set
Actual Time
Civil Twilight
Nautical Twilight
Astronomical Twilight
Moon
Length of Visible Light
Length of Day
Tomorrow will be .
, % of the Moon is Illuminated

Today's Extremes

State Highs State Lows

Community

WunderPhotos

Upload Photos

1,808,705 photos uploaded!

WunderBlogs® & News

Nearby

Air Quality

  Air Quality AQ Index Pollutant
Not available.

Snow Depth

Station Depth Elevation

Earthquake Activity

City Distance Mag. Time & Date
Minimum magnitude displayed is 2.5.

Coastal Water Temperatures

Place Temperature

Stations

Nearby Weather Stations

Station Location Temp. Windchill Dew Point Humidity Wind Precip. Elev Updated Type